sensor_id;sensor_type;location;lat;lon;timestamp;temperature;humidity
7494;DHT22;3788;49.902;8.590;2022-11-04T00:01:24;12.10;99.90
7494;DHT22;3788;49.902;8.590;2022-11-04T00:03:52;12.00;99.90
7494;DHT22;3788;49.902;8.590;2022-11-04T00:06:20;12.00;99.90
7494;DHT22;3788;49.902;8.590;2022-11-04T00:08:48;12.00;99.90
7494;DHT22;3788;49.902;8.590;2022-11-04T00:11:15;12.10;99.90
7494;DHT22;3788;49.902;8.590;2022-11-04T00:14:12;12.10;99.90
7494;DHT22;3788;49.902;8.590;2022-11-04T00:16:43;12.10;99.90
7494;DHT22;3788;49.902;8.590;2022-11-04T00:19:27;12.10;99.90
7494;DHT22;3788;49.902;8.590;2022-11-04T00:22:16;12.10;99.90
7494;DHT22;3788;49.902;8.590;2022-11-04T00:25:00;12.10;99.90
7494;DHT22;3788;49.902;8.590;2022-11-04T00:27:45;12.10;99.90
7494;DHT22;3788;49.902;8.590;2022-11-04T00:30:29;12.10;99.90
7494;DHT22;3788;49.902;8.590;2022-11-04T00:32:56;12.10;99.90
7494;DHT22;3788;49.902;8.590;2022-11-04T00:35:47;12.10;99.90
7494;DHT22;3788;49.902;8.590;2022-11-04T00:38:15;12.10;99.90
7494;DHT22;3788;49.902;8.590;2022-11-04T00:40:42;12.00;99.90
7494;DHT22;3788;49.902;8.590;2022-11-04T00:43:09;12.10;99.90
7494;DHT22;3788;49.902;8.590;2022-11-04T00:45:35;12.10;99.90
7494;DHT22;3788;49.902;8.590;2022-11-04T00:48:03;12.00;99.90
7494;DHT22;3788;49.902;8.590;2022-11-04T00:50:30;12.00;99.90
7494;DHT22;3788;49.902;8.590;2022-11-04T00:52:58;12.00;99.90
7494;DHT22;3788;49.902;8.590;2022-11-04T00:55:26;12.00;99.90
7494;DHT22;3788;49.902;8.590;2022-11-04T00:57:53;12.00;99.90
7494;DHT22;3788;49.902;8.590;2022-11-04T01:00:20;12.00;99.90
7494;DHT22;3788;49.902;8.590;2022-11-04T01:02:47;12.00;99.90
7494;DHT22;3788;49.902;8.590;2022-11-04T01:05:14;12.00;99.90
7494;DHT22;3788;49.902;8.590;2022-11-04T01:07:40;12.00;99.90
7494;DHT22;3788;49.902;8.590;2022-11-04T01:10:08;12.00;99.90
7494;DHT22;3788;49.902;8.590;2022-11-04T01:12:36;12.10;99.90
7494;DHT22;3788;49.902;8.590;2022-11-04T01:15:03;12.10;99.90
7494;DHT22;3788;49.902;8.590;2022-11-04T01:17:30;12.10;99.90
7494;DHT22;3788;49.902;8.590;2022-11-04T01:19:57;12.10;99.90
7494;DHT22;3788;49.902;8.590;2022-11-04T01:22:24;12.10;99.90
7494;DHT22;3788;49.902;8.590;2022-11-04T01:24:51;12.10;99.90
7494;DHT22;3788;49.902;8.590;2022-11-04T01:27:17;12.10;99.90
7494;DHT22;3788;49.902;8.590;2022-11-04T01:29:46;12.10;99.90
7494;DHT22;3788;49.902;8.590;2022-11-04T01:32:13;12.10;99.90
7494;DHT22;3788;49.902;8.590;2022-11-04T01:34:39;12.10;99.90
7494;DHT22;3788;49.902;8.590;2022-11-04T01:37:06;12.10;99.90
7494;DHT22;3788;49.902;8.590;2022-11-04T01:39:33;12.10;99.90
7494;DHT22;3788;49.902;8.590;2022-11-04T01:42:00;12.10;99.90
7494;DHT22;3788;49.902;8.590;2022-11-04T01:44:49;12.10;99.90
7494;DHT22;3788;49.902;8.590;2022-11-04T01:47:18;12.10;99.90
7494;DHT22;3788;49.902;8.590;2022-11-04T01:49:49;12.00;99.90
7494;DHT22;3788;49.902;8.590;2022-11-04T01:52:22;12.00;99.90
7494;DHT22;3788;49.902;8.590;2022-11-04T01:54:52;12.00;99.90
7494;DHT22;3788;49.902;8.590;2022-11-04T01:57:29;12.00;99.90
7494;DHT22;3788;49.902;8.590;2022-11-04T02:00:02;12.00;99.90
7494;DHT22;3788;49.902;8.590;2022-11-04T02:02:29;12.00;99.90
7494;DHT22;3788;49.902;8.590;2022-11-04T02:04:56;12.00;99.90
7494;DHT22;3788;49.902;8.590;2022-11-04T02:07:23;12.00;99.90
7494;DHT22;3788;49.902;8.590;2022-11-04T02:09:50;12.00;99.90
7494;DHT22;3788;49.902;8.590;2022-11-04T02:12:17;12.00;99.90
7494;DHT22;3788;49.902;8.590;2022-11-04T02:15:03;12.00;99.90
7494;DHT22;3788;49.902;8.590;2022-11-04T02:17:45;12.00;99.90
7494;DHT22;3788;49.902;8.590;2022-11-04T02:20:24;12.00;99.90
7494;DHT22;3788;49.902;8.590;2022-11-04T02:23:29;12.00;99.90
7494;DHT22;3788;49.902;8.590;2022-11-04T02:26:28;11.90;99.90
7494;DHT22;3788;49.902;8.590;2022-11-04T02:29:15;11.90;99.90
7494;DHT22;3788;49.902;8.590;2022-11-04T02:31:50;11.80;99.90
7494;DHT22;3788;49.902;8.590;2022-11-04T02:34:20;11.80;99.90
7494;DHT22;3788;49.902;8.590;2022-11-04T02:36:56;11.70;99.90
7494;DHT22;3788;49.902;8.590;2022-11-04T02:39:36;11.70;99.90
7494;DHT22;3788;49.902;8.590;2022-11-04T02:42:10;11.60;99.90
7494;DHT22;3788;49.902;8.590;2022-11-04T02:44:44;11.60;99.90
7494;DHT22;3788;49.902;8.590;2022-11-04T02:47:13;11.60;99.90
7494;DHT22;3788;49.902;8.590;2022-11-04T02:49:46;11.60;99.90
7494;DHT22;3788;49.902;8.590;2022-11-04T02:52:19;11.50;99.90
7494;DHT22;3788;49.902;8.590;2022-11-04T02:54:49;11.50;99.90
7494;DHT22;3788;49.902;8.590;2022-11-04T02:57:20;11.50;99.90
7494;DHT22;3788;49.902;8.590;2022-11-04T02:59:53;11.50;99.90
7494;DHT22;3788;49.902;8.590;2022-11-04T03:02:26;11.50;99.90
7494;DHT22;3788;49.902;8.590;2022-11-04T03:04:54;11.50;99.90
7494;DHT22;3788;49.902;8.590;2022-11-04T03:07:26;11.50;99.90
7494;DHT22;3788;49.902;8.590;2022-11-04T03:09:58;11.40;99.90
7494;DHT22;3788;49.902;8.590;2022-11-04T03:12:27;11.40;99.90
7494;DHT22;3788;49.902;8.590;2022-11-04T03:15:01;11.40;99.90
7494;DHT22;3788;49.902;8.590;2022-11-04T03:17:31;11.40;99.90
7494;DHT22;3788;49.902;8.590;2022-11-04T03:20:03;11.30;99.90
7494;DHT22;3788;49.902;8.590;2022-11-04T03:22:34;11.30;99.90
7494;DHT22;3788;49.902;8.590;2022-11-04T03:25:01;11.30;99.90
7494;DHT22;3788;49.902;8.590;2022-11-04T03:27:33;11.20;99.90
7494;DHT22;3788;49.902;8.590;2022-11-04T03:30:05;11.20;99.90
7494;DHT22;3788;49.902;8.590;2022-11-04T03:32:39;11.20;99.90
7494;DHT22;3788;49.902;8.590;2022-11-04T03:35:08;11.20;99.90
7494;DHT22;3788;49.902;8.590;2022-11-04T03:37:35;11.20;99.90
7494;DHT22;3788;49.902;8.590;2022-11-04T03:40:02;11.20;99.90
7494;DHT22;3788;49.902;8.590;2022-11-04T03:42:30;11.20;99.90
7494;DHT22;3788;49.902;8.590;2022-11-04T03:44:58;11.20;99.90
7494;DHT22;3788;49.902;8.590;2022-11-04T03:47:28;11.20;99.90
7494;DHT22;3788;49.902;8.590;2022-11-04T03:50:01;11.20;99.90
7494;DHT22;3788;49.902;8.590;2022-11-04T03:52:30;11.20;99.90
7494;DHT22;3788;49.902;8.590;2022-11-04T03:54:58;11.20;99.90
7494;DHT22;3788;49.902;8.590;2022-11-04T03:57:39;11.20;99.90
7494;DHT22;3788;49.902;8.590;2022-11-04T04:00:11;11.20;99.90
7494;DHT22;3788;49.902;8.590;2022-11-04T04:02:57;11.20;99.90
7494;DHT22;3788;49.902;8.590;2022-11-04T04:05:26;11.10;99.90
7494;DHT22;3788;49.902;8.590;2022-11-04T04:08:01;11.10;99.90
7494;DHT22;3788;49.902;8.590;2022-11-04T04:10:36;11.10;99.90
7494;DHT22;3788;49.902;8.590;2022-11-04T04:13:11;11.10;99.90
7494;DHT22;3788;49.902;8.590;2022-11-04T04:15:43;11.00;99.90
7494;DHT22;3788;49.902;8.590;2022-11-04T04:18:15;11.00;99.90
7494;DHT22;3788;49.902;8.590;2022-11-04T04:20:44;11.00;99.90
7494;DHT22;3788;49.902;8.590;2022-11-04T04:23:15;11.00;99.90
7494;DHT22;3788;49.902;8.590;2022-11-04T04:26:05;10.90;99.90
7494;DHT22;3788;49.902;8.590;2022-11-04T04:28:51;10.90;99.90
7494;DHT22;3788;49.902;8.590;2022-11-04T04:31:20;10.90;99.90
7494;DHT22;3788;49.902;8.590;2022-11-04T04:34:03;10.90;99.90
7494;DHT22;3788;49.902;8.590;2022-11-04T04:36:33;10.80;99.90
7494;DHT22;3788;49.902;8.590;2022-11-04T04:39:05;10.80;99.90
7494;DHT22;3788;49.902;8.590;2022-11-04T04:41:50;10.80;99.90
7494;DHT22;3788;49.902;8.590;2022-11-04T04:44:34;10.80;99.90
7494;DHT22;3788;49.902;8.590;2022-11-04T04:47:22;10.80;99.90
7494;DHT22;3788;49.902;8.590;2022-11-04T04:49:51;10.80;99.90
7494;DHT22;3788;49.902;8.590;2022-11-04T04:52:19;10.70;99.90
7494;DHT22;3788;49.902;8.590;2022-11-04T04:54:47;10.70;99.90
7494;DHT22;3788;49.902;8.590;2022-11-04T04:57:14;10.70;99.90
7494;DHT22;3788;49.902;8.590;2022-11-04T04:59:40;10.70;99.90
7494;DHT22;3788;49.902;8.590;2022-11-04T05:02:07;10.70;99.90
7494;DHT22;3788;49.902;8.590;2022-11-04T05:04:34;10.70;99.90
7494;DHT22;3788;49.902;8.590;2022-11-04T05:07:02;10.60;99.90
7494;DHT22;3788;49.902;8.590;2022-11-04T05:09:29;10.60;99.90
7494;DHT22;3788;49.902;8.590;2022-11-04T05:11:56;10.60;99.90
7494;DHT22;3788;49.902;8.590;2022-11-04T05:14:23;10.60;99.90
7494;DHT22;3788;49.902;8.590;2022-11-04T05:16:49;10.60;99.90
7494;DHT22;3788;49.902;8.590;2022-11-04T05:19:16;10.60;99.90
7494;DHT22;3788;49.902;8.590;2022-11-04T05:21:43;10.60;99.90
7494;DHT22;3788;49.902;8.590;2022-11-04T05:24:11;10.60;99.90
7494;DHT22;3788;49.902;8.590;2022-11-04T05:26:38;10.60;99.90
7494;DHT22;3788;49.902;8.590;2022-11-04T05:29:05;10.60;99.90
7494;DHT22;3788;49.902;8.590;2022-11-04T05:31:31;10.60;99.90
7494;DHT22;3788;49.902;8.590;2022-11-04T05:33:58;10.50;99.90
7494;DHT22;3788;49.902;8.590;2022-11-04T05:36:25;10.50;99.90
7494;DHT22;3788;49.902;8.590;2022-11-04T05:38:53;10.50;99.90
7494;DHT22;3788;49.902;8.590;2022-11-04T05:41:22;10.50;99.90
7494;DHT22;3788;49.902;8.590;2022-11-04T05:43:51;10.50;99.90
7494;DHT22;3788;49.902;8.590;2022-11-04T05:46:18;10.40;99.90
7494;DHT22;3788;49.902;8.590;2022-11-04T05:48:45;10.40;99.90
7494;DHT22;3788;49.902;8.590;2022-11-04T05:51:12;10.40;99.90
7494;DHT22;3788;49.902;8.590;2022-11-04T05:53:39;10.40;99.90
7494;DHT22;3788;49.902;8.590;2022-11-04T05:56:06;10.40;99.90
7494;DHT22;3788;49.902;8.590;2022-11-04T05:58:34;10.40;99.90
7494;DHT22;3788;49.902;8.590;2022-11-04T06:01:23;10.40;99.90
7494;DHT22;3788;49.902;8.590;2022-11-04T06:03:50;10.40;99.90
7494;DHT22;3788;49.902;8.590;2022-11-04T06:06:17;10.40;99.90
7494;DHT22;3788;49.902;8.590;2022-11-04T06:08:43;10.40;99.90
7494;DHT22;3788;49.902;8.590;2022-11-04T06:11:10;10.40;99.90
7494;DHT22;3788;49.902;8.590;2022-11-04T06:13:39;10.40;99.90
7494;DHT22;3788;49.902;8.590;2022-11-04T06:16:06;10.50;99.90
7494;DHT22;3788;49.902;8.590;2022-11-04T06:18:32;10.50;99.90
7494;DHT22;3788;49.902;8.590;2022-11-04T06:21:07;10.50;99.90
7494;DHT22;3788;49.902;8.590;2022-11-04T06:23:33;10.60;99.90
7494;DHT22;3788;49.902;8.590;2022-11-04T06:26:01;10.60;99.90
7494;DHT22;3788;49.902;8.590;2022-11-04T06:28:27;10.60;99.90
7494;DHT22;3788;49.902;8.590;2022-11-04T06:30:57;10.60;99.90
7494;DHT22;3788;49.902;8.590;2022-11-04T06:33:24;10.70;99.90
7494;DHT22;3788;49.902;8.590;2022-11-04T06:35:51;10.70;99.90
7494;DHT22;3788;49.902;8.590;2022-11-04T06:38:17;10.80;99.90
7494;DHT22;3788;49.902;8.590;2022-11-04T06:40:44;10.80;99.90
7494;DHT22;3788;49.902;8.590;2022-11-04T06:43:11;10.80;99.90
7494;DHT22;3788;49.902;8.590;2022-11-04T06:45:38;10.80;99.90
7494;DHT22;3788;49.902;8.590;2022-11-04T06:48:06;10.80;99.90
7494;DHT22;3788;49.902;8.590;2022-11-04T06:50:33;10.80;99.90
7494;DHT22;3788;49.902;8.590;2022-11-04T06:52:59;10.80;99.90
7494;DHT22;3788;49.902;8.590;2022-11-04T06:55:26;10.80;99.90
7494;DHT22;3788;49.902;8.590;2022-11-04T06:57:53;10.70;99.90
7494;DHT22;3788;49.902;8.590;2022-11-04T07:00:20;10.70;99.90
7494;DHT22;3788;49.902;8.590;2022-11-04T07:02:47;10.70;99.90
7494;DHT22;3788;49.902;8.590;2022-11-04T07:05:15;10.80;99.90
7494;DHT22;3788;49.902;8.590;2022-11-04T07:07:42;10.80;99.90
7494;DHT22;3788;49.902;8.590;2022-11-04T07:10:09;10.80;99.90
7494;DHT22;3788;49.902;8.590;2022-11-04T07:12:36;10.90;99.90
7494;DHT22;3788;49.902;8.590;2022-11-04T07:15:04;10.90;99.90
7494;DHT22;3788;49.902;8.590;2022-11-04T07:17:31;10.90;99.90
7494;DHT22;3788;49.902;8.590;2022-11-04T07:19:58;10.90;99.90
7494;DHT22;3788;49.902;8.590;2022-11-04T07:22:27;10.90;99.90
7494;DHT22;3788;49.902;8.590;2022-11-04T07:24:53;10.90;99.90
7494;DHT22;3788;49.902;8.590;2022-11-04T07:27:20;10.90;99.90
7494;DHT22;3788;49.902;8.590;2022-11-04T07:29:47;11.00;99.90
7494;DHT22;3788;49.902;8.590;2022-11-04T07:32:14;11.00;99.90
7494;DHT22;3788;49.902;8.590;2022-11-04T07:34:41;11.00;99.90
7494;DHT22;3788;49.902;8.590;2022-11-04T07:37:08;11.10;99.90
7494;DHT22;3788;49.902;8.590;2022-11-04T07:39:36;11.10;99.90
7494;DHT22;3788;49.902;8.590;2022-11-04T07:42:03;11.10;99.90
7494;DHT22;3788;49.902;8.590;2022-11-04T07:44:32;11.10;99.90
7494;DHT22;3788;49.902;8.590;2022-11-04T07:46:59;11.10;99.90
7494;DHT22;3788;49.902;8.590;2022-11-04T07:49:26;11.10;99.90
7494;DHT22;3788;49.902;8.590;2022-11-04T07:51:52;11.20;99.90
7494;DHT22;3788;49.902;8.590;2022-11-04T07:54:19;11.20;99.90
7494;DHT22;3788;49.902;8.590;2022-11-04T07:56:47;11.20;99.90
7494;DHT22;3788;49.902;8.590;2022-11-04T07:59:14;11.20;99.90
7494;DHT22;3788;49.902;8.590;2022-11-04T08:01:41;11.30;99.90
7494;DHT22;3788;49.902;8.590;2022-11-04T08:04:08;11.30;99.90
7494;DHT22;3788;49.902;8.590;2022-11-04T08:06:36;11.30;99.90
7494;DHT22;3788;49.902;8.590;2022-11-04T08:09:02;11.40;99.90
7494;DHT22;3788;49.902;8.590;2022-11-04T08:11:29;11.40;99.90
7494;DHT22;3788;49.902;8.590;2022-11-04T08:13:58;11.40;99.90
7494;DHT22;3788;49.902;8.590;2022-11-04T08:16:24;11.40;99.90
7494;DHT22;3788;49.902;8.590;2022-11-04T08:18:51;11.40;99.90
7494;DHT22;3788;49.902;8.590;2022-11-04T08:21:19;11.40;99.90
7494;DHT22;3788;49.902;8.590;2022-11-04T08:23:46;11.40;99.90
7494;DHT22;3788;49.902;8.590;2022-11-04T08:26:17;11.40;99.90
7494;DHT22;3788;49.902;8.590;2022-11-04T08:28:44;11.40;99.90
7494;DHT22;3788;49.902;8.590;2022-11-04T08:31:14;11.40;99.90
7494;DHT22;3788;49.902;8.590;2022-11-04T08:33:41;11.50;99.90
7494;DHT22;3788;49.902;8.590;2022-11-04T08:36:12;11.50;99.90
7494;DHT22;3788;49.902;8.590;2022-11-04T08:38:39;11.50;99.90
7494;DHT22;3788;49.902;8.590;2022-11-04T08:41:08;11.50;99.90
7494;DHT22;3788;49.902;8.590;2022-11-04T08:43:35;11.60;99.90
7494;DHT22;3788;49.902;8.590;2022-11-04T08:46:04;11.60;99.90
7494;DHT22;3788;49.902;8.590;2022-11-04T08:48:36;11.70;99.90
7494;DHT22;3788;49.902;8.590;2022-11-04T08:51:04;11.80;99.90
7494;DHT22;3788;49.902;8.590;2022-11-04T08:53:31;11.80;99.90
7494;DHT22;3788;49.902;8.590;2022-11-04T08:55:58;11.80;99.90
7494;DHT22;3788;49.902;8.590;2022-11-04T08:58:24;11.90;99.90
7494;DHT22;3788;49.902;8.590;2022-11-04T09:00:51;12.00;99.90
7494;DHT22;3788;49.902;8.590;2022-11-04T09:03:18;12.00;99.90
7494;DHT22;3788;49.902;8.590;2022-11-04T09:05:46;12.10;99.90
7494;DHT22;3788;49.902;8.590;2022-11-04T09:08:14;12.20;99.90
7494;DHT22;3788;49.902;8.590;2022-11-04T09:10:41;12.20;99.90
7494;DHT22;3788;49.902;8.590;2022-11-04T09:13:09;12.30;99.90
7494;DHT22;3788;49.902;8.590;2022-11-04T09:15:36;12.30;99.90
7494;DHT22;3788;49.902;8.590;2022-11-04T09:18:03;12.30;99.90
7494;DHT22;3788;49.902;8.590;2022-11-04T09:20:31;12.30;99.90
7494;DHT22;3788;49.902;8.590;2022-11-04T09:22:59;12.40;99.90
7494;DHT22;3788;49.902;8.590;2022-11-04T09:25:26;12.50;99.90
7494;DHT22;3788;49.902;8.590;2022-11-04T09:27:53;12.60;99.90
7494;DHT22;3788;49.902;8.590;2022-11-04T09:30:20;12.70;99.90
7494;DHT22;3788;49.902;8.590;2022-11-04T09:32:46;12.80;99.90
7494;DHT22;3788;49.902;8.590;2022-11-04T09:35:13;12.90;99.90
7494;DHT22;3788;49.902;8.590;2022-11-04T09:37:42;13.00;99.90
7494;DHT22;3788;49.902;8.590;2022-11-04T09:40:15;13.00;99.90
7494;DHT22;3788;49.902;8.590;2022-11-04T09:42:52;13.00;99.90
7494;DHT22;3788;49.902;8.590;2022-11-04T09:45:25;13.10;99.90
7494;DHT22;3788;49.902;8.590;2022-11-04T09:47:58;13.10;99.90
7494;DHT22;3788;49.902;8.590;2022-11-04T09:50:28;13.20;99.90
7494;DHT22;3788;49.902;8.590;2022-11-04T09:53:00;13.20;99.90
7494;DHT22;3788;49.902;8.590;2022-11-04T09:55:32;13.20;99.90
7494;DHT22;3788;49.902;8.590;2022-11-04T09:58:01;13.20;99.80
7494;DHT22;3788;49.902;8.590;2022-11-04T10:00:30;13.30;99.80
7494;DHT22;3788;49.902;8.590;2022-11-04T10:03:08;13.40;99.90
7494;DHT22;3788;49.902;8.590;2022-11-04T10:05:45;13.60;99.90
7494;DHT22;3788;49.902;8.590;2022-11-04T10:08:37;13.80;99.40
7494;DHT22;3788;49.902;8.590;2022-11-04T10:11:15;13.90;99.00
7494;DHT22;3788;49.902;8.590;2022-11-04T10:13:56;14.00;98.70
7494;DHT22;3788;49.902;8.590;2022-11-04T10:16:46;14.00;98.30
7494;DHT22;3788;49.902;8.590;2022-11-04T10:19:36;14.10;98.30
7494;DHT22;3788;49.902;8.590;2022-11-04T10:22:10;14.20;98.10
7494;DHT22;3788;49.902;8.590;2022-11-04T10:24:53;14.20;97.70
7494;DHT22;3788;49.902;8.590;2022-11-04T10:27:26;14.30;97.60
7494;DHT22;3788;49.902;8.590;2022-11-04T10:29:57;14.40;97.60
7494;DHT22;3788;49.902;8.590;2022-11-04T10:32:30;14.40;97.30
7494;DHT22;3788;49.902;8.590;2022-11-04T10:35:03;14.50;97.10
7494;DHT22;3788;49.902;8.590;2022-11-04T10:37:32;14.50;96.50
7494;DHT22;3788;49.902;8.590;2022-11-04T10:40:05;14.50;96.30
7494;DHT22;3788;49.902;8.590;2022-11-04T10:42:39;14.50;96.10
7494;DHT22;3788;49.902;8.590;2022-11-04T10:45:10;14.50;96.10
7494;DHT22;3788;49.902;8.590;2022-11-04T10:47:45;14.40;95.90
7494;DHT22;3788;49.902;8.590;2022-11-04T10:50:21;14.40;96.40
7494;DHT22;3788;49.902;8.590;2022-11-04T10:52:50;14.30;96.40
7494;DHT22;3788;49.902;8.590;2022-11-04T10:55:29;14.30;96.40
7494;DHT22;3788;49.902;8.590;2022-11-04T10:58:01;14.20;96.50
7494;DHT22;3788;49.902;8.590;2022-11-04T11:00:33;14.10;96.60
7494;DHT22;3788;49.902;8.590;2022-11-04T11:03:00;14.00;96.80
7494;DHT22;3788;49.902;8.590;2022-11-04T11:05:27;13.90;97.20
7494;DHT22;3788;49.902;8.590;2022-11-04T11:07:55;13.90;97.20
7494;DHT22;3788;49.902;8.590;2022-11-04T11:10:24;13.90;97.00
7494;DHT22;3788;49.902;8.590;2022-11-04T11:12:54;13.90;96.70
7494;DHT22;3788;49.902;8.590;2022-11-04T11:15:28;13.90;96.20
7494;DHT22;3788;49.902;8.590;2022-11-04T11:18:10;14.00;96.00
7494;DHT22;3788;49.902;8.590;2022-11-04T11:20:38;14.10;95.80
7494;DHT22;3788;49.902;8.590;2022-11-04T11:23:33;14.10;95.30
7494;DHT22;3788;49.902;8.590;2022-11-04T11:26:02;14.20;95.50
7494;DHT22;3788;49.902;8.590;2022-11-04T11:28:29;14.30;95.40
7494;DHT22;3788;49.902;8.590;2022-11-04T11:31:04;14.30;95.30
7494;DHT22;3788;49.902;8.590;2022-11-04T11:33:39;14.40;95.30
7494;DHT22;3788;49.902;8.590;2022-11-04T11:36:08;14.60;95.00
7494;DHT22;3788;49.902;8.590;2022-11-04T11:38:52;14.70;94.90
7494;DHT22;3788;49.902;8.590;2022-11-04T11:41:20;14.70;94.80
7494;DHT22;3788;49.902;8.590;2022-11-04T11:43:54;14.70;94.70
7494;DHT22;3788;49.902;8.590;2022-11-04T11:46:24;14.70;94.80
7494;DHT22;3788;49.902;8.590;2022-11-04T11:48:54;14.60;94.80
7494;DHT22;3788;49.902;8.590;2022-11-04T11:51:27;14.70;95.00
7494;DHT22;3788;49.902;8.590;2022-11-04T11:54:15;14.80;94.60
7494;DHT22;3788;49.902;8.590;2022-11-04T11:56:45;14.80;94.70
7494;DHT22;3788;49.902;8.590;2022-11-04T11:59:22;14.90;94.50
7494;DHT22;3788;49.902;8.590;2022-11-04T12:01:56;15.00;94.60
7494;DHT22;3788;49.902;8.590;2022-11-04T12:04:24;15.10;94.30
7494;DHT22;3788;49.902;8.590;2022-11-04T12:07:01;15.10;94.10
7494;DHT22;3788;49.902;8.590;2022-11-04T12:09:36;15.10;94.30
7494;DHT22;3788;49.902;8.590;2022-11-04T12:12:39;15.00;94.20
7494;DHT22;3788;49.902;8.590;2022-11-04T12:15:40;14.80;94.30
7494;DHT22;3788;49.902;8.590;2022-11-04T12:18:33;14.90;95.00
7494;DHT22;3788;49.902;8.590;2022-11-04T12:21:07;14.90;95.20
7494;DHT22;3788;49.902;8.590;2022-11-04T12:23:40;15.00;95.00
7494;DHT22;3788;49.902;8.590;2022-11-04T12:26:19;14.90;94.70
7494;DHT22;3788;49.902;8.590;2022-11-04T12:29:02;14.80;94.60
7494;DHT22;3788;49.902;8.590;2022-11-04T12:31:38;14.80;94.70
7494;DHT22;3788;49.902;8.590;2022-11-04T12:34:12;14.80;94.90
7494;DHT22;3788;49.902;8.590;2022-11-04T12:36:56;14.80;94.70
7494;DHT22;3788;49.902;8.590;2022-11-04T12:39:36;14.70;94.80
7494;DHT22;3788;49.902;8.590;2022-11-04T12:42:26;14.70;94.80
7494;DHT22;3788;49.902;8.590;2022-11-04T12:45:01;14.70;94.80
7494;DHT22;3788;49.902;8.590;2022-11-04T12:47:36;14.60;95.00
7494;DHT22;3788;49.902;8.590;2022-11-04T12:50:22;14.70;95.00
7494;DHT22;3788;49.902;8.590;2022-11-04T12:53:06;14.70;95.10
7494;DHT22;3788;49.902;8.590;2022-11-04T12:55:43;14.70;95.10
7494;DHT22;3788;49.902;8.590;2022-11-04T12:58:23;14.60;94.80
7494;DHT22;3788;49.902;8.590;2022-11-04T13:00:56;14.60;95.00
7494;DHT22;3788;49.902;8.590;2022-11-04T13:03:28;14.60;95.20
7494;DHT22;3788;49.902;8.590;2022-11-04T13:06:02;14.50;95.20
7494;DHT22;3788;49.902;8.590;2022-11-04T13:08:33;14.50;95.70
7494;DHT22;3788;49.902;8.590;2022-11-04T13:11:08;14.50;95.60
7494;DHT22;3788;49.902;8.590;2022-11-04T13:13:53;14.50;95.60
7494;DHT22;3788;49.902;8.590;2022-11-04T13:16:22;14.40;95.70
7494;DHT22;3788;49.902;8.590;2022-11-04T13:18:49;14.40;95.80
7494;DHT22;3788;49.902;8.590;2022-11-04T13:21:20;14.50;95.80
7494;DHT22;3788;49.902;8.590;2022-11-04T13:23:51;14.50;95.50
7494;DHT22;3788;49.902;8.590;2022-11-04T13:26:18;14.50;95.50
7494;DHT22;3788;49.902;8.590;2022-11-04T13:28:50;14.50;95.60
7494;DHT22;3788;49.902;8.590;2022-11-04T13:31:31;14.60;95.60
7494;DHT22;3788;49.902;8.590;2022-11-04T13:34:05;14.70;95.70
7494;DHT22;3788;49.902;8.590;2022-11-04T13:36:40;14.70;95.70
7494;DHT22;3788;49.902;8.590;2022-11-04T13:39:17;14.70;95.70
7494;DHT22;3788;49.902;8.590;2022-11-04T13:42:10;14.70;95.60
7494;DHT22;3788;49.902;8.590;2022-11-04T13:44:44;14.70;95.90
7494;DHT22;3788;49.902;8.590;2022-11-04T13:47:15;14.70;95.50
7494;DHT22;3788;49.902;8.590;2022-11-04T13:49:48;14.70;95.40
7494;DHT22;3788;49.902;8.590;2022-11-04T13:52:15;14.70;95.50
7494;DHT22;3788;49.902;8.590;2022-11-04T13:54:44;14.70;95.40
7494;DHT22;3788;49.902;8.590;2022-11-04T13:57:14;14.70;95.00
7494;DHT22;3788;49.902;8.590;2022-11-04T14:00:17;14.70;94.50
7494;DHT22;3788;49.902;8.590;2022-11-04T14:02:45;14.70;94.50
7494;DHT22;3788;49.902;8.590;2022-11-04T14:08:20;14.60;94.70
7494;DHT22;3788;49.902;8.590;2022-11-04T14:11:00;14.50;94.70
7494;DHT22;3788;49.902;8.590;2022-11-04T14:16:39;14.40;95.10
7494;DHT22;3788;49.902;8.590;2022-11-04T14:22:34;14.30;95.40
7494;DHT22;3788;49.902;8.590;2022-11-04T14:25:18;14.30;95.40
7494;DHT22;3788;49.902;8.590;2022-11-04T14:27:47;14.20;95.50
7494;DHT22;3788;49.902;8.590;2022-11-04T14:30:33;14.10;95.60
7494;DHT22;3788;49.902;8.590;2022-11-04T14:33:04;14.10;95.80
7494;DHT22;3788;49.902;8.590;2022-11-04T14:35:32;14.10;95.90
7494;DHT22;3788;49.902;8.590;2022-11-04T14:38:12;14.10;96.00
7494;DHT22;3788;49.902;8.590;2022-11-04T14:40:47;14.10;96.20
7494;DHT22;3788;49.902;8.590;2022-11-04T14:43:29;14.10;96.30
7494;DHT22;3788;49.902;8.590;2022-11-04T14:45:58;14.00;96.40
7494;DHT22;3788;49.902;8.590;2022-11-04T14:48:27;14.10;96.50
7494;DHT22;3788;49.902;8.590;2022-11-04T14:50:56;14.00;96.60
7494;DHT22;3788;49.902;8.590;2022-11-04T14:53:27;14.00;96.80
7494;DHT22;3788;49.902;8.590;2022-11-04T14:56:04;14.00;97.00
7494;DHT22;3788;49.902;8.590;2022-11-04T14:58:31;14.10;97.10
7494;DHT22;3788;49.902;8.590;2022-11-04T15:00:59;14.00;97.10
7494;DHT22;3788;49.902;8.590;2022-11-04T15:03:32;14.00;97.20
7494;DHT22;3788;49.902;8.590;2022-11-04T15:06:02;14.00;97.30
7494;DHT22;3788;49.902;8.590;2022-11-04T15:08:35;14.00;97.50
7494;DHT22;3788;49.902;8.590;2022-11-04T15:11:10;13.90;97.60
7494;DHT22;3788;49.902;8.590;2022-11-04T15:13:43;13.90;97.80
7494;DHT22;3788;49.902;8.590;2022-11-04T15:16:14;13.80;98.00
7494;DHT22;3788;49.902;8.590;2022-11-04T15:18:43;13.80;98.30
7494;DHT22;3788;49.902;8.590;2022-11-04T15:21:10;13.70;98.50
7494;DHT22;3788;49.902;8.590;2022-11-04T15:23:40;13.70;98.80
7494;DHT22;3788;49.902;8.590;2022-11-04T15:26:20;13.60;98.90
7494;DHT22;3788;49.902;8.590;2022-11-04T15:28:48;13.60;99.20
7494;DHT22;3788;49.902;8.590;2022-11-04T15:31:18;13.50;99.30
7494;DHT22;3788;49.902;8.590;2022-11-04T15:33:49;13.40;99.40
7494;DHT22;3788;49.902;8.590;2022-11-04T15:36:18;13.30;99.50
7494;DHT22;3788;49.902;8.590;2022-11-04T15:38:49;13.30;99.70
7494;DHT22;3788;49.902;8.590;2022-11-04T15:41:19;13.20;99.80
7494;DHT22;3788;49.902;8.590;2022-11-04T15:44:12;13.10;99.90
7494;DHT22;3788;49.902;8.590;2022-11-04T15:46:46;13.10;99.90
7494;DHT22;3788;49.902;8.590;2022-11-04T15:49:20;13.00;99.90
7494;DHT22;3788;49.902;8.590;2022-11-04T15:51:48;12.90;99.90
7494;DHT22;3788;49.902;8.590;2022-11-04T15:54:19;12.90;99.90
7494;DHT22;3788;49.902;8.590;2022-11-04T15:56:50;12.80;99.90
7494;DHT22;3788;49.902;8.590;2022-11-04T15:59:21;12.80;99.90
7494;DHT22;3788;49.902;8.590;2022-11-04T16:01:50;12.70;99.90
7494;DHT22;3788;49.902;8.590;2022-11-04T16:04:21;12.70;99.90
7494;DHT22;3788;49.902;8.590;2022-11-04T16:07:03;12.60;99.90
7494;DHT22;3788;49.902;8.590;2022-11-04T16:09:30;12.50;99.90
7494;DHT22;3788;49.902;8.590;2022-11-04T16:12:05;12.40;99.90
7494;DHT22;3788;49.902;8.590;2022-11-04T16:14:33;12.30;99.90
7494;DHT22;3788;49.902;8.590;2022-11-04T16:16:59;12.20;99.90
7494;DHT22;3788;49.902;8.590;2022-11-04T16:19:28;12.20;99.90
7494;DHT22;3788;49.902;8.590;2022-11-04T16:22:01;12.30;99.90
7494;DHT22;3788;49.902;8.590;2022-11-04T16:24:30;12.30;99.90
7494;DHT22;3788;49.902;8.590;2022-11-04T16:26:58;12.30;99.90
7494;DHT22;3788;49.902;8.590;2022-11-04T16:29:26;12.30;99.90
7494;DHT22;3788;49.902;8.590;2022-11-04T16:32:05;12.30;99.90
7494;DHT22;3788;49.902;8.590;2022-11-04T16:34:34;12.20;99.90
7494;DHT22;3788;49.902;8.590;2022-11-04T16:37:00;12.10;99.90
7494;DHT22;3788;49.902;8.590;2022-11-04T16:39:27;12.00;99.90
7494;DHT22;3788;49.902;8.590;2022-11-04T16:41:54;11.90;99.90